Time;durP1;ratioP1;P1;durP2;ratioP2;P2;SDS_P1;SDS_P2;PMS_P1;PMS_P2;Temp;Humidity;BMP_temperature;BMP_pressure;BME280_temperature;BME280_humidity;BME280_pressure;Samples;Min_cycle;Max_cycle;Signal;HPM_P1;HPM_P2
2023/08/02 00:00:48;;;;;;;5.18;2.80;;;14.60;99.90;;;;;;5054924;28;20017;-66
2023/08/02 00:03:13;;;;;;;5.50;3.00;;;14.60;99.90;;;;;;5055038;28;20117;-66
2023/08/02 00:05:39;;;;;;;4.15;3.05;;;14.60;99.90;;;;;;5055524;28;20035;-66
2023/08/02 00:08:05;;;;;;;4.72;3.20;;;14.60;99.90;;;;;;5055033;28;20083;-66
2023/08/02 00:10:34;;;;;;;4.57;3.42;;;14.60;99.90;;;;;;5054723;28;20033;-66
2023/08/02 00:13:00;;;;;;;6.40;3.70;;;14.60;99.90;;;;;;5054081;28;20029;-66
2023/08/02 00:15:25;;;;;;;3.97;2.90;;;14.60;99.90;;;;;;5054867;28;20469;-66
2023/08/02 00:17:51;;;;;;;4.32;3.17;;;14.60;99.90;;;;;;5053567;28;20391;-66
2023/08/02 00:20:17;;;;;;;4.93;3.13;;;14.60;99.90;;;;;;5054823;28;20075;-66
2023/08/02 00:22:43;;;;;;;3.90;3.47;;;14.50;99.90;;;;;;5054630;28;20049;-66
2023/08/02 00:25:08;;;;;;;5.55;3.03;;;14.50;99.90;;;;;;5054393;28;20077;-66
2023/08/02 00:27:34;;;;;;;4.25;2.88;;;14.50;99.90;;;;;;5054879;28;20029;-66
2023/08/02 00:30:00;;;;;;;5.60;2.95;;;14.50;99.90;;;;;;5054810;28;20483;-67
2023/08/02 00:32:25;;;;;;;4.72;3.22;;;14.50;99.90;;;;;;5054303;28;20078;-66
2023/08/02 00:34:54;;;;;;;6.15;4.05;;;14.50;99.90;;;;;;5054843;28;20036;-66
2023/08/02 00:37:21;;;;;;;3.38;2.65;;;14.50;99.90;;;;;;5054667;28;20036;-66
2023/08/02 00:39:51;;;;;;;4.40;2.95;;;14.50;99.90;;;;;;5054411;28;20474;-66
2023/08/02 00:42:18;;;;;;;6.13;2.67;;;14.50;99.90;;;;;;5054510;28;20032;-66
2023/08/02 00:44:43;;;;;;;5.65;3.17;;;14.40;99.90;;;;;;5054292;28;20060;-66
2023/08/02 00:47:09;;;;;;;3.47;3.17;;;14.50;99.90;;;;;;5054064;28;20104;-65
2023/08/02 00:49:35;;;;;;;4.78;3.05;;;14.50;99.90;;;;;;5054256;28;20053;-66
2023/08/02 00:52:00;;;;;;;3.58;3.15;;;14.40;99.90;;;;;;5054185;28;20061;-66
2023/08/02 00:54:27;;;;;;;5.38;2.97;;;14.40;99.90;;;;;;5053709;28;20500;-65
2023/08/02 00:56:54;;;;;;;3.13;2.83;;;14.40;99.90;;;;;;5054097;28;20033;-65
2023/08/02 00:59:19;;;;;;;4.63;2.95;;;14.30;99.90;;;;;;5054117;28;20120;-65
2023/08/02 01:01:47;;;;;;;6.47;3.42;;;14.30;99.90;;;;;;5054131;28;20111;-65
2023/08/02 01:04:13;;;;;;;8.75;2.95;;;14.20;99.90;;;;;;5052741;28;20527;-65
2023/08/02 01:06:48;;;;;;;3.75;3.15;;;14.30;99.90;;;;;;5052716;28;20029;-65
2023/08/02 01:09:42;;;;;;;4.05;2.85;;;14.30;99.90;;;;;;5054286;28;20025;-65
2023/08/02 01:12:10;;;;;;;3.70;3.17;;;14.30;99.90;;;;;;5052678;28;20385;-65
2023/08/02 01:14:41;;;;;;;4.93;3.35;;;14.30;99.90;;;;;;5053886;28;20036;-65
2023/08/02 01:17:08;;;;;;;3.58;2.40;;;14.30;99.90;;;;;;5053883;28;20029;-65
2023/08/02 01:19:33;;;;;;;3.17;2.85;;;14.30;99.90;;;;;;5053729;28;20493;-66
2023/08/02 01:21:59;;;;;;;6.47;3.22;;;14.30;99.90;;;;;;5054209;28;20021;-65
2023/08/02 01:24:31;;;;;;;7.07;3.50;;;14.20;99.90;;;;;;5053630;28;20077;-66
2023/08/02 01:27:00;;;;;;;5.07;2.60;;;14.20;99.90;;;;;;5053787;28;20032;-65
2023/08/02 01:29:28;;;;;;;8.30;3.17;;;14.20;99.90;;;;;;5053691;28;20059;-65
2023/08/02 01:31:56;;;;;;;3.70;2.70;;;14.20;99.90;;;;;;5053651;28;20032;-65
2023/08/02 01:34:23;;;;;;;3.75;2.58;;;14.30;99.90;;;;;;5053571;28;20036;-65
2023/08/02 01:36:49;;;;;;;5.50;2.58;;;14.30;99.90;;;;;;5053691;28;20123;-65
2023/08/02 01:39:16;;;;;;;4.55;2.75;;;14.50;99.90;;;;;;5053605;28;20055;-66
2023/08/02 01:41:42;;;;;;;3.25;2.47;;;14.60;99.90;;;;;;5053533;28;20104;-65
2023/08/02 01:44:08;;;;;;;3.33;2.00;;;14.60;99.90;;;;;;5053541;28;20095;-66
2023/08/02 01:46:33;;;;;;;3.30;1.90;;;14.60;99.90;;;;;;5053846;28;20373;-65
2023/08/02 01:48:59;;;;;;;3.50;2.42;;;14.70;99.90;;;;;;5053256;28;20025;-66
2023/08/02 01:51:25;;;;;;;2.33;1.40;;;14.70;99.90;;;;;;5053115;28;20068;-65
2023/08/02 01:53:51;;;;;;;2.67;1.52;;;14.70;99.90;;;;;;5053434;28;20040;-66
2023/08/02 01:56:17;;;;;;;3.35;1.65;;;14.70;99.90;;;;;;5053545;28;20367;-66
2023/08/02 01:58:42;;;;;;;2.72;1.63;;;14.70;99.90;;;;;;5053443;28;20021;-65
2023/08/02 02:01:08;;;;;;;1.90;1.67;;;14.80;99.90;;;;;;5053220;28;20025;-65
2023/08/02 02:03:34;;;;;;;2.90;1.60;;;14.80;99.90;;;;;;5053440;28;20029;-65
2023/08/02 02:05:59;;;;;;;1.77;1.67;;;14.80;99.90;;;;;;5057092;28;20061;-66
2023/08/02 02:08:25;;;;;;;4.38;1.05;;;14.80;99.90;;;;;;5057348;28;20512;-65
2023/08/02 02:10:52;;;;;;;1.50;1.35;;;14.80;99.90;;;;;;5055990;28;20025;-65
2023/08/02 02:13:18;;;;;;;2.40;1.52;;;14.80;99.90;;;;;;5057261;28;20021;-65
2023/08/02 02:15:44;;;;;;;1.73;1.38;;;14.90;99.90;;;;;;5057072;28;20035;-65
2023/08/02 02:18:10;;;;;;;1.92;1.70;;;14.90;99.90;;;;;;5057126;28;20033;-65
2023/08/02 02:20:35;;;;;;;2.28;1.77;;;14.90;99.90;;;;;;5057096;28;20035;-66
2023/08/02 02:23:01;;;;;;;1.55;1.40;;;14.90;99.90;;;;;;5056938;28;20448;-65
2023/08/02 02:25:27;;;;;;;1.63;1.20;;;14.90;99.90;;;;;;5055725;28;20466;-65
2023/08/02 02:27:52;;;;;;;3.15;1.50;;;14.90;99.90;;;;;;5056905;28;20040;-66
2023/08/02 02:30:18;;;;;;;1.02;0.85;;;14.90;99.90;;;;;;5056898;28;20025;-66
2023/08/02 02:32:43;;;;;;;2.95;1.60;;;14.90;99.90;;;;;;5057154;28;20478;-66
2023/08/02 02:35:12;;;;;;;2.75;1.25;;;14.90;99.90;;;;;;5056410;28;20029;-66
2023/08/02 02:37:38;;;;;;;1.83;1.50;;;14.90;99.90;;;;;;5056763;28;20025;-66
2023/08/02 02:40:05;;;;;;;3.53;1.38;;;14.90;99.90;;;;;;5056237;28;20479;-65
2023/08/02 02:42:31;;;;;;;3.33;1.50;;;14.90;99.90;;;;;;5055936;28;20477;-65
2023/08/02 02:44:56;;;;;;;1.40;1.30;;;14.90;99.90;;;;;;5056627;28;20025;-66
2023/08/02 02:47:22;;;;;;;1.40;1.30;;;14.90;99.90;;;;;;5056584;28;20025;-66
2023/08/02 02:49:47;;;;;;;3.47;1.15;;;14.80;99.90;;;;;;5056826;28;20071;-66
2023/08/02 02:52:13;;;;;;;1.35;1.25;;;14.80;99.90;;;;;;5056677;28;20499;-66
2023/08/02 02:54:39;;;;;;;1.85;1.13;;;14.90;99.90;;;;;;5056433;28;20028;-66
2023/08/02 02:57:05;;;;;;;1.48;1.30;;;14.80;99.90;;;;;;5056343;28;20033;-66
2023/08/02 02:59:32;;;;;;;1.38;1.27;;;14.80;99.90;;;;;;5056868;28;20041;-66
2023/08/02 03:01:58;;;;;;;3.67;1.13;;;14.70;99.90;;;;;;5056356;28;20025;-66
2023/08/02 03:04:24;;;;;;;2.10;1.42;;;14.70;99.90;;;;;;5056278;28;20051;-66
2023/08/02 03:06:51;;;;;;;3.35;1.88;;;14.60;99.90;;;;;;5056232;28;20064;-66
2023/08/02 03:09:17;;;;;;;4.20;1.48;;;14.60;99.90;;;;;;5056138;28;20025;-66
2023/08/02 03:11:43;;;;;;;5.97;1.98;;;14.60;99.90;;;;;;5056123;28;20033;-66
2023/08/02 03:14:09;;;;;;;1.63;1.50;;;14.50;99.90;;;;;;5056368;28;20078;-66
2023/08/02 03:16:35;;;;;;;2.45;1.25;;;14.50;99.90;;;;;;5055027;28;20530;-66
2023/08/02 03:19:00;;;;;;;2.30;1.25;;;14.50;99.90;;;;;;5055930;28;20466;-66
2023/08/02 03:21:26;;;;;;;1.70;1.50;;;14.50;99.90;;;;;;5054636;28;20061;-66
2023/08/02 03:23:51;;;;;;;1.40;1.30;;;14.50;99.90;;;;;;5055881;28;20048;-67
2023/08/02 03:26:17;;;;;;;4.00;1.15;;;14.50;99.90;;;;;;5055547;28;20033;-67
2023/08/02 03:28:43;;;;;;;6.43;1.95;;;14.60;99.90;;;;;;5055542;28;20027;-67
2023/08/02 03:31:08;;;;;;;2.42;1.30;;;14.60;99.90;;;;;;5055493;28;20078;-66
2023/08/02 03:33:34;;;;;;;2.17;1.60;;;14.70;99.90;;;;;;5055954;28;20074;-66
2023/08/02 03:36:00;;;;;;;3.22;1.25;;;14.70;99.90;;;;;;5055739;28;20033;-67
2023/08/02 03:38:25;;;;;;;1.85;1.30;;;14.70;99.90;;;;;;5055301;28;20106;-66
2023/08/02 03:40:52;;;;;;;2.35;1.38;;;14.70;99.90;;;;;;5055560;28;20017;-66
2023/08/02 03:43:17;;;;;;;1.70;1.20;;;14.70;99.90;;;;;;5055762;28;20032;-67
2023/08/02 03:45:43;;;;;;;5.90;1.40;;;14.70;99.90;;;;;;5055340;28;20446;-67
2023/08/02 03:48:09;;;;;;;4.45;1.23;;;14.70;99.90;;;;;;5055367;28;20047;-66
2023/08/02 03:50:34;;;;;;;1.55;1.40;;;14.70;99.90;;;;;;5053738;28;20036;-66
2023/08/02 03:53:00;;;;;;;3.72;1.17;;;14.70;99.90;;;;;;5055361;28;20033;-66
2023/08/02 03:55:26;;;;;;;1.67;1.30;;;14.70;99.90;;;;;;5055209;28;20043;-66
2023/08/02 03:57:52;;;;;;;1.30;1.20;;;14.90;99.90;;;;;;5055203;28;20109;-66
2023/08/02 04:00:17;;;;;;;3.60;1.25;;;15.00;99.90;;;;;;5055176;28;20029;-67
2023/08/02 04:02:43;;;;;;;1.05;0.90;;;15.20;99.90;;;;;;5055172;28;20071;-66
2023/08/02 04:05:10;;;;;;;0.75;0.73;;;15.20;99.90;;;;;;5054821;28;20021;-66
2023/08/02 04:07:36;;;;;;;1.05;0.80;;;15.30;99.90;;;;;;5053776;28;20039;-66
2023/08/02 04:10:02;;;;;;;1.35;1.25;;;15.40;99.90;;;;;;5054996;28;20531;-66
2023/08/02 04:12:27;;;;;;;1.10;1.10;;;15.40;99.90;;;;;;5053621;28;20070;-66
2023/08/02 04:14:54;;;;;;;3.10;0.82;;;15.50;99.90;;;;;;5055149;28;20029;-66
2023/08/02 04:17:20;;;;;;;2.92;0.90;;;15.50;99.90;;;;;;5054043;28;20057;-65
2023/08/02 04:19:46;;;;;;;3.05;1.00;;;15.60;99.90;;;;;;5053908;28;20120;-81
2023/08/02 04:22:11;;;;;;;2.72;1.00;;;15.60;99.90;;;;;;5054562;28;20052;-56
2023/08/02 04:24:37;;;;;;;2.47;1.13;;;15.70;99.90;;;;;;5054365;28;20032;-57
2023/08/02 04:27:03;;;;;;;2.28;1.10;;;15.80;99.90;;;;;;5054968;28;20037;-57
2023/08/02 04:29:29;;;;;;;3.15;1.20;;;15.90;99.90;;;;;;5054596;28;20118;-57
2023/08/02 04:31:54;;;;;;;0.95;0.95;;;15.90;99.90;;;;;;5052841;28;20478;-56
2023/08/02 04:34:20;;;;;;;1.77;1.10;;;15.90;99.90;;;;;;5054400;28;20029;-60
2023/08/02 04:36:46;;;;;;;4.07;1.25;;;15.90;99.90;;;;;;5054434;28;20031;-56
2023/08/02 04:39:12;;;;;;;2.15;1.20;;;15.80;99.90;;;;;;5038020;28;20070;-57
2023/08/02 04:41:37;;;;;;;0.90;0.90;;;15.80;99.90;;;;;;5041439;28;20462;-57
2023/08/02 04:44:03;;;;;;;1.17;1.00;;;15.90;99.90;;;;;;5054653;28;20100;-57
2023/08/02 04:46:29;;;;;;;1.40;1.20;;;15.90;99.90;;;;;;5052984;28;20036;-56
2023/08/02 04:48:55;;;;;;;1.30;1.20;;;16.10;99.90;;;;;;5054555;28;20063;-57
2023/08/02 04:51:21;;;;;;;1.10;1.05;;;16.20;99.90;;;;;;5053979;28;20472;-57
2023/08/02 04:53:49;;;;;;;1.40;1.00;;;16.40;99.90;;;;;;5054203;28;20033;-57
2023/08/02 04:56:16;;;;;;;1.20;1.10;;;16.50;99.90;;;;;;5054071;28;20029;-57
2023/08/02 04:58:42;;;;;;;1.48;1.20;;;16.80;99.90;;;;;;5053824;28;20041;-68
2023/08/02 05:01:07;;;;;;;1.25;1.05;;;16.80;99.90;;;;;;5054012;28;20082;-67
2023/08/02 05:03:34;;;;;;;2.60;1.05;;;16.70;99.90;;;;;;5054015;28;20034;-68
2023/08/02 05:06:01;;;;;;;2.65;1.10;;;16.70;99.90;;;;;;5053604;28;20025;-67
2023/08/02 05:08:29;;;;;;;1.65;1.00;;;16.70;99.90;;;;;;5052724;28;20116;-68
2023/08/02 05:10:55;;;;;;;1.45;0.80;;;16.70;99.90;;;;;;5054190;28;20413;-75
2023/08/02 05:13:25;;;;;;;1.00;0.93;;;16.70;99.90;;;;;;5053562;28;20028;-68
2023/08/02 05:15:51;;;;;;;1.58;1.02;;;16.80;99.90;;;;;;5052666;28;20052;-68
2023/08/02 05:18:17;;;;;;;1.83;1.35;;;16.80;99.90;;;;;;5053867;28;20036;-68
2023/08/02 05:20:43;;;;;;;1.90;1.80;;;16.90;99.90;;;;;;5053869;28;20466;-68
2023/08/02 05:23:08;;;;;;;2.45;1.40;;;16.90;99.90;;;;;;5052150;28;20139;-68
2023/08/02 05:25:34;;;;;;;1.75;1.60;;;16.90;99.90;;;;;;5054188;28;20461;-68
2023/08/02 05:28:00;;;;;;;2.67;1.58;;;17.00;99.90;;;;;;5053341;28;20492;-68
2023/08/02 05:30:27;;;;;;;4.82;1.65;;;17.00;99.90;;;;;;5052338;28;20025;-68
2023/08/02 05:32:54;;;;;;;1.98;1.88;;;17.00;99.90;;;;;;5052352;28;20029;-68
2023/08/02 05:35:20;;;;;;;4.72;2.28;;;17.10;99.90;;;;;;5053558;28;20486;-68
2023/08/02 05:37:45;;;;;;;3.45;3.05;;;17.10;99.90;;;;;;5053577;28;20029;-67
2023/08/02 05:40:11;;;;;;;2.15;1.90;;;17.20;99.90;;;;;;5052888;28;20025;-67
2023/08/02 05:42:37;;;;;;;5.25;3.40;;;17.30;99.90;;;;;;5052426;28;20074;-67
2023/08/02 05:45:03;;;;;;;2.88;2.00;;;17.50;99.90;;;;;;5053573;28;20104;-67
2023/08/02 05:47:29;;;;;;;3.70;2.33;;;17.50;99.90;;;;;;5052086;28;20158;-66
2023/08/02 05:49:55;;;;;;;2.63;1.80;;;17.60;99.90;;;;;;5052206;28;20032;-66
2023/08/02 05:52:20;;;;;;;1.70;1.60;;;17.80;99.90;;;;;;5053425;28;20033;-66
2023/08/02 05:54:46;;;;;;;2.33;1.38;;;17.80;99.90;;;;;;5052112;28;20116;-65
2023/08/02 05:57:11;;;;;;;2.20;1.42;;;17.90;99.90;;;;;;5053019;28;20035;-65
2023/08/02 05:59:38;;;;;;;2.72;1.10;;;18.00;99.90;;;;;;5053386;28;20379;-65
2023/08/02 06:02:07;;;;;;;2.70;1.20;;;18.10;99.90;;;;;;5053024;28;20386;-65
2023/08/02 06:04:36;;;;;;;2.92;1.00;;;18.20;99.90;;;;;;5051913;28;20025;-65
2023/08/02 06:07:03;;;;;;;2.20;1.40;;;18.40;99.90;;;;;;5053014;28;20466;-57
2023/08/02 06:09:29;;;;;;;4.68;2.55;;;18.60;99.90;;;;;;5053287;28;20025;-57
2023/08/02 06:11:54;;;;;;;2.70;1.10;;;18.90;99.90;;;;;;5053109;28;20389;-58
2023/08/02 06:14:20;;;;;;;3.17;0.93;;;19.20;99.90;;;;;;5053242;28;20076;-57
2023/08/02 06:16:46;;;;;;;2.08;1.08;;;19.60;99.90;;;;;;5053020;28;20032;-56
2023/08/02 06:19:11;;;;;;;1.95;0.90;;;20.00;99.90;;;;;;5052685;28;20033;-56
2023/08/02 06:21:37;;;;;;;1.38;0.82;;;20.30;99.90;;;;;;5051591;28;20052;-57
2023/08/02 06:24:03;;;;;;;1.30;0.77;;;20.60;99.90;;;;;;5053124;28;20056;-57
2023/08/02 06:26:29;;;;;;;1.13;0.88;;;20.90;99.90;;;;;;5053174;28;20071;-57
2023/08/02 06:28:55;;;;;;;0.80;0.80;;;21.20;99.90;;;;;;5052793;28;20082;-57
2023/08/02 06:31:21;;;;;;;2.80;0.73;;;21.50;99.90;;;;;;5053154;28;20033;-65
2023/08/02 06:33:47;;;;;;;1.00;0.98;;;21.60;99.90;;;;;;5052704;28;20026;-65
2023/08/02 06:36:13;;;;;;;0.98;0.90;;;21.70;99.90;;;;;;5051464;28;20174;-65
2023/08/02 06:38:39;;;;;;;1.13;0.80;;;21.70;99.90;;;;;;5052869;28;20538;-62
2023/08/02 06:41:05;;;;;;;1.08;0.70;;;21.90;99.90;;;;;;5052576;28;20025;-62
2023/08/02 06:43:30;;;;;;;1.65;1.08;;;22.10;99.90;;;;;;5053210;28;20033;-62
2023/08/02 06:46:02;;;;;;;0.90;0.80;;;22.40;99.90;;;;;;5052832;28;20025;-63
2023/08/02 06:48:27;;;;;;;1.40;1.05;;;22.60;99.90;;;;;;5052797;28;20025;-63
2023/08/02 06:50:54;;;;;;;1.75;1.00;;;22.80;99.90;;;;;;5053247;28;20104;-62
2023/08/02 06:53:19;;;;;;;2.60;0.90;;;22.90;99.90;;;;;;5056424;28;20060;-62
2023/08/02 06:55:45;;;;;;;0.73;0.70;;;22.90;99.90;;;;;;5054596;28;20445;-63
2023/08/02 06:58:11;;;;;;;1.05;0.90;;;22.90;99.90;;;;;;5055614;28;20033;-63
2023/08/02 07:00:36;;;;;;;3.05;0.75;;;23.30;99.90;;;;;;5056108;28;20025;-62
2023/08/02 07:03:03;;;;;;;0.60;0.60;;;23.40;99.90;;;;;;5056382;28;20458;-62
2023/08/02 07:05:30;;;;;;;19.10;4.78;;;23.50;99.90;;;;;;5055917;28;20025;-62
2023/08/02 07:07:56;;;;;;;3.13;1.00;;;23.50;99.90;;;;;;5055846;28;20382;-62
2023/08/02 07:10:23;;;;;;;4.50;1.00;;;23.70;99.90;;;;;;5055791;28;20028;-65
2023/08/02 07:12:49;;;;;;;3.40;1.10;;;24.10;99.90;;;;;;5056252;28;20037;-65
2023/08/02 07:15:15;;;;;;;2.90;1.02;;;24.60;99.90;;;;;;5056071;28;20022;-65
2023/08/02 07:17:41;;;;;;;2.40;0.80;;;25.10;99.90;;;;;;5056074;28;20036;-65
2023/08/02 07:20:08;;;;;;;1.38;0.80;;;25.40;99.30;;;;;;5055989;28;20017;-65
2023/08/02 07:22:33;;;;;;;2.55;1.08;;;25.70;97.90;;;;;;5055727;28;20107;-65
2023/08/02 07:24:59;;;;;;;0.60;0.60;;;25.70;97.50;;;;;;5056188;28;20071;-65
2023/08/02 07:27:25;;;;;;;4.15;1.30;;;25.80;97.60;;;;;;5055446;28;20122;-65
2023/08/02 07:29:52;;;;;;;2.13;0.70;;;25.70;96.90;;;;;;5055730;28;20031;-65
2023/08/02 07:32:18;;;;;;;1.15;1.00;;;25.80;97.20;;;;;;5055668;28;20032;-65
2023/08/02 07:34:44;;;;;;;2.78;1.00;;;26.00;96.60;;;;;;5055869;28;20021;-65
2023/08/02 07:37:09;;;;;;;1.05;0.73;;;25.80;96.70;;;;;;5055813;28;20455;-65
2023/08/02 07:39:36;;;;;;;1.83;1.00;;;25.80;96.60;;;;;;5055551;28;20036;-65
2023/08/02 07:42:02;;;;;;;3.28;0.70;;;25.90;94.90;;;;;;5055500;28;20032;-65
2023/08/02 07:44:28;;;;;;;3.55;0.80;;;26.10;95.50;;;;;;5055827;28;20366;-65
2023/08/02 07:46:53;;;;;;;5.88;1.35;;;26.50;95.50;;;;;;5055798;28;20033;-65
2023/08/02 07:49:19;;;;;;;2.80;0.70;;;26.70;94.70;;;;;;5055347;28;20028;-65
2023/08/02 07:51:45;;;;;;;1.77;0.82;;;26.80;93.40;;;;;;5055196;28;20096;-65
2023/08/02 07:54:10;;;;;;;3.35;1.60;;;27.00;92.70;;;;;;5055228;28;20029;-65
2023/08/02 07:56:36;;;;;;;0.80;0.80;;;27.10;92.60;;;;;;5055213;28;20118;-65
2023/08/02 07:59:01;;;;;;;1.00;0.73;;;27.20;91.40;;;;;;5054961;28;20398;-65
2023/08/02 08:01:27;;;;;;;1.35;0.75;;;27.40;91.30;;;;;;5054532;28;20029;-65
2023/08/02 08:03:53;;;;;;;0.93;0.93;;;27.70;89.60;;;;;;5055064;28;20032;-65
2023/08/02 08:06:20;;;;;;;0.73;0.73;;;28.10;87.60;;;;;;5053891;28;20032;-65
2023/08/02 08:08:46;;;;;;;3.13;0.90;;;27.80;86.10;;;;;;5055164;28;20028;-65
2023/08/02 08:11:14;;;;;;;1.92;0.93;;;27.70;85.60;;;;;;5055320;28;20105;-65
2023/08/02 08:13:39;;;;;;;1.55;0.90;;;27.70;86.30;;;;;;5053426;28;20021;-65
2023/08/02 08:16:05;;;;;;;1.20;0.57;;;27.60;86.50;;;;;;5053444;28;20359;-65
2023/08/02 08:18:31;;;;;;;1.75;1.42;;;27.50;82.90;;;;;;5054989;28;20033;-65
2023/08/02 08:20:58;;;;;;;1.17;0.80;;;27.60;83.70;;;;;;5053607;28;20036;-65
2023/08/02 08:23:23;;;;;;;0.98;0.75;;;27.70;81.80;;;;;;5054667;28;20045;-65
2023/08/02 08:25:49;;;;;;;1.77;0.70;;;27.80;81.80;;;;;;5055095;28;20044;-65
2023/08/02 08:28:14;;;;;;;1.67;0.77;;;28.20;79.30;;;;;;5054730;28;20075;-65
2023/08/02 08:30:40;;;;;;;2.15;0.90;;;28.30;77.70;;;;;;5054829;28;20180;-65
2023/08/02 08:33:06;;;;;;;0.82;0.80;;;28.90;76.40;;;;;;5053809;28;20049;-65
2023/08/02 08:35:34;;;;;;;1.70;0.75;;;29.40;75.00;;;;;;5054448;28;20056;-65
2023/08/02 08:38:01;;;;;;;1.58;1.10;;;29.90;74.60;;;;;;5054378;28;20082;-66
2023/08/02 08:40:26;;;;;;;1.10;0.70;;;30.30;72.80;;;;;;5054436;28;20074;-65
2023/08/02 08:42:55;;;;;;;3.03;1.10;;;30.50;69.30;;;;;;5054062;28;20483;-65
2023/08/02 08:45:22;;;;;;;0.98;0.60;;;29.80;67.00;;;;;;5054073;28;20474;-65
2023/08/02 08:47:48;;;;;;;0.70;0.70;;;29.80;67.30;;;;;;5054372;28;20033;-65
2023/08/02 08:50:16;;;;;;;2.42;0.75;;;29.90;66.20;;;;;;5054181;28;20025;-65
2023/08/02 08:52:44;;;;;;;0.93;0.68;;;29.90;65.90;;;;;;5054395;28;20036;-66
2023/08/02 08:55:12;;;;;;;;;;;30.20;64.10;;;;;;5054453;28;20021;-65
2023/08/02 08:57:39;;;;;;;1.07;0.97;;;30.70;64.00;;;;;;5053661;28;19940;-65
2023/08/02 09:00:06;;;;;;;0.70;0.70;;;31.30;63.50;;;;;;5052791;28;20025;-65
2023/08/02 09:02:33;;;;;;;0.65;0.60;;;31.20;61.80;;;;;;5053774;28;20028;-65
2023/08/02 09:05:02;;;;;;;8.30;1.27;;;31.00;57.10;;;;;;5053922;28;20068;-65
2023/08/02 09:07:27;;;;;;;1.17;0.85;;;31.00;58.60;;;;;;5053925;28;20021;-65
2023/08/02 09:09:53;;;;;;;1.83;0.70;;;30.30;57.20;;;;;;5054212;28;20425;-65
2023/08/02 09:12:18;;;;;;;0.60;0.60;;;29.90;58.80;;;;;;5053960;28;20463;-66
2023/08/02 09:15:04;;;;;;;0.75;0.50;;;29.90;59.10;;;;;;5053066;28;20064;-65
2023/08/02 09:17:53;;;;;;;1.95;0.73;;;30.50;58.60;;;;;;5053461;28;20037;-65
2023/08/02 09:20:22;;;;;;;2.63;0.73;;;31.10;56.60;;;;;;5053978;28;20079;-65
2023/08/02 09:22:48;;;;;;;0.75;0.73;;;31.30;55.80;;;;;;5053421;28;20044;-65
2023/08/02 09:25:21;;;;;;;0.60;0.60;;;31.50;56.00;;;;;;5052150;28;20120;-65
2023/08/02 09:27:48;;;;;;;0.85;0.55;;;31.20;55.10;;;;;;5053655;28;20051;-65
2023/08/02 09:30:23;;;;;;;1.15;0.73;;;31.20;56.70;;;;;;5053738;28;20021;-66
2023/08/02 09:33:02;;;;;;;1.88;0.80;;;30.90;57.30;;;;;;5053350;28;20079;-65
2023/08/02 09:35:30;;;;;;;1.13;1.02;;;29.90;57.30;;;;;;5053436;28;20060;-65
2023/08/02 09:37:56;;;;;;;0.90;0.70;;;29.60;58.70;;;;;;5053244;28;20032;-65
2023/08/02 09:40:35;;;;;;;1.27;1.17;;;29.70;58.90;;;;;;5053225;28;20030;-65
2023/08/02 09:43:01;;;;;;;1.10;1.00;;;30.60;57.70;;;;;;5053781;28;20021;-65
2023/08/02 09:45:34;;;;;;;1.17;0.90;;;31.10;56.90;;;;;;5053566;28;20056;-65
2023/08/02 09:48:01;;;;;;;2.13;1.40;;;31.40;58.00;;;;;;5053285;28;20021;-65
2023/08/02 09:50:27;;;;;;;1.10;0.90;;;31.80;57.60;;;;;;5052147;28;20021;-65
2023/08/02 09:52:53;;;;;;;3.22;0.90;;;31.40;55.70;;;;;;5053305;28;20455;-65
2023/08/02 09:55:20;;;;;;;1.23;0.70;;;31.00;56.70;;;;;;5052002;28;20111;-65
2023/08/02 09:57:47;;;;;;;1.27;0.80;;;31.00;57.40;;;;;;5053450;28;20036;-65
2023/08/02 10:00:14;;;;;;;0.85;0.85;;;31.60;54.50;;;;;;5052282;28;20060;-65
2023/08/02 10:02:40;;;;;;;1.30;1.00;;;31.80;52.50;;;;;;5053461;28;20040;-65
2023/08/02 10:05:07;;;;;;;1.10;1.00;;;31.60;52.40;;;;;;5053320;28;20025;-65
2023/08/02 10:07:46;;;;;;;1.20;0.80;;;31.20;52.20;;;;;;5053358;28;20025;-65
2023/08/02 10:10:31;;;;;;;0.80;0.80;;;30.20;53.20;;;;;;5052042;28;20033;-65
2023/08/02 10:13:01;;;;;;;1.45;0.93;;;30.30;53.60;;;;;;5052007;28;20028;-66
2023/08/02 10:15:27;;;;;;;2.60;0.93;;;30.80;55.00;;;;;;5053499;28;20135;-65
2023/08/02 10:17:55;;;;;;;0.95;0.90;;;30.70;53.60;;;;;;5053070;28;20116;-66
2023/08/02 10:20:21;;;;;;;1.75;0.60;;;30.80;54.50;;;;;;5053284;28;20103;-66
2023/08/02 10:22:49;;;;;;;0.80;0.80;;;31.10;54.10;;;;;;5052899;28;20044;-65
2023/08/02 10:25:16;;;;;;;0.93;0.93;;;30.20;56.40;;;;;;5052972;28;20032;-65
2023/08/02 10:27:44;;;;;;;3.03;1.10;;;29.70;57.70;;;;;;5056767;28;20039;-65
2023/08/02 10:30:11;;;;;;;1.85;0.90;;;30.00;58.50;;;;;;5056479;28;20032;-66
2023/08/02 10:32:37;;;;;;;0.93;0.75;;;28.40;57.40;;;;;;5056917;28;20025;-65
2023/08/02 10:35:03;;;;;;;1.60;1.27;;;29.00;60.00;;;;;;5056617;28;20096;-65
2023/08/02 10:37:56;;;;;;;3.42;1.00;;;29.10;59.50;;;;;;5056789;28;20037;-65
2023/08/02 10:40:22;;;;;;;5.88;0.73;;;29.00;60.60;;;;;;5056425;28;20025;-65
2023/08/02 10:43:05;;;;;;;2.90;1.00;;;28.90;60.40;;;;;;5055537;28;20040;-65
2023/08/02 10:45:31;;;;;;;1.10;1.00;;;28.70;61.10;;;;;;5057119;28;20028;-65
2023/08/02 10:48:22;;;;;;;0.88;0.63;;;28.70;61.00;;;;;;5056565;28;20485;-65
2023/08/02 10:50:48;;;;;;;0.70;0.60;;;28.20;61.20;;;;;;5056589;28;20039;-65
2023/08/02 10:53:14;;;;;;;2.00;0.85;;;28.50;61.00;;;;;;5056442;28;20029;-65
2023/08/02 10:56:04;;;;;;;0.82;0.80;;;28.20;61.40;;;;;;5056641;28;20454;-65
2023/08/02 10:58:46;;;;;;;0.63;0.63;;;28.70;62.60;;;;;;5056436;28;20032;-65
2023/08/02 11:01:12;;;;;;;0.77;0.73;;;29.10;63.40;;;;;;5055078;28;20476;-65
2023/08/02 11:03:39;;;;;;;0.90;0.80;;;28.90;63.40;;;;;;5055967;28;20387;-65
2023/08/02 11:06:04;;;;;;;1.85;0.80;;;29.20;64.30;;;;;;5055077;28;20036;-65
2023/08/02 11:08:49;;;;;;;0.60;0.57;;;29.60;63.70;;;;;;5056594;28;20028;-65
2023/08/02 11:11:14;;;;;;;3.05;0.43;;;29.40;63.80;;;;;;5055678;28;20451;-65
2023/08/02 11:13:41;;;;;;;1.88;0.63;;;29.10;65.60;;;;;;5056361;28;20028;-65
2023/08/02 11:16:07;;;;;;;2.25;0.90;;;28.80;66.50;;;;;;5056358;28;20075;-65
2023/08/02 11:18:33;;;;;;;0.80;0.80;;;29.10;67.30;;;;;;5056288;28;20428;-66
2023/08/02 11:21:10;;;;;;;1.67;1.58;;;29.80;66.30;;;;;;5056028;28;20025;-65
2023/08/02 11:23:36;;;;;;;2.88;0.60;;;30.40;66.00;;;;;;5056023;28;20072;-65
2023/08/02 11:26:15;;;;;;;3.80;2.13;;;30.60;64.40;;;;;;5055867;28;20033;-65
2023/08/02 11:28:42;;;;;;;2.08;0.80;;;31.10;64.00;;;;;;5055928;28;20033;-66
2023/08/02 11:31:09;;;;;;;0.50;0.50;;;31.50;63.70;;;;;;5055865;28;20059;-65
2023/08/02 11:33:36;;;;;;;2.65;0.68;;;31.60;60.70;;;;;;5055470;28;20471;-65
2023/08/02 11:36:02;;;;;;;2.08;0.93;;;31.20;61.90;;;;;;5055390;28;20041;-65
2023/08/02 11:38:28;;;;;;;3.75;0.70;;;31.70;61.20;;;;;;5054907;28;20096;-66
2023/08/02 11:40:54;;;;;;;1.50;0.75;;;32.40;60.10;;;;;;5055949;28;20029;-65
2023/08/02 11:43:38;;;;;;;0.82;0.60;;;32.00;60.20;;;;;;5055301;28;20075;-65
2023/08/02 11:46:21;;;;;;;0.47;0.47;;;32.10;59.40;;;;;;5054620;28;20475;-65
2023/08/02 11:48:50;;;;;;;1.45;0.80;;;31.50;60.10;;;;;;5055579;28;20029;-65
2023/08/02 11:51:18;;;;;;;0.70;0.70;;;31.60;60.00;;;;;;5055354;28;20028;-65
2023/08/02 11:53:57;;;;;;;;;;;31.90;60.30;;;;;;5055756;28;20031;-65
2023/08/02 11:56:27;;;;;;;1.00;0.52;;;32.50;60.50;;;;;;5055380;28;19915;-65
2023/08/02 11:58:54;;;;;;;0.75;0.60;;;33.30;56.40;;;;;;5055203;28;20116;-65
2023/08/02 12:01:20;;;;;;;0.80;0.50;;;33.30;52.80;;;;;;5055110;28;20072;-65
2023/08/02 12:04:00;;;;;;;1.52;0.50;;;32.70;52.60;;;;;;5054287;28;20462;-65
2023/08/02 12:06:27;;;;;;;1.60;0.60;;;33.10;52.50;;;;;;5055677;28;20497;-66
2023/08/02 12:08:58;;;;;;;0.40;0.30;;;33.80;52.80;;;;;;5055478;28;20065;-65
2023/08/02 12:11:24;;;;;;;0.63;0.60;;;33.60;50.20;;;;;;5055089;28;20078;-65
2023/08/02 12:13:50;;;;;;;1.00;0.43;;;33.10;50.60;;;;;;5053814;28;20036;-65
2023/08/02 12:16:17;;;;;;;1.05;0.52;;;33.00;50.00;;;;;;5054861;28;20025;-65
2023/08/02 12:18:56;;;;;;;0.40;0.40;;;32.60;50.50;;;;;;5054945;28;20029;-65
2023/08/02 12:21:26;;;;;;;0.63;0.50;;;32.70;50.70;;;;;;5054709;28;20025;-65
2023/08/02 12:23:53;;;;;;;1.80;0.40;;;32.80;50.80;;;;;;5053342;28;20057;-65
2023/08/02 12:26:34;;;;;;;0.82;0.47;;;32.80;50.30;;;;;;5054600;28;20068;-65
2023/08/02 12:29:01;;;;;;;2.45;0.47;;;33.50;49.60;;;;;;5053437;28;20066;-65
2023/08/02 12:31:27;;;;;;;1.77;0.60;;;33.40;49.40;;;;;;5054423;28;20029;-66
2023/08/02 12:33:53;;;;;;;0.50;0.50;;;32.80;50.30;;;;;;5053811;28;20350;-65
2023/08/02 12:36:27;;;;;;;0.95;0.40;;;32.60;50.40;;;;;;5053393;28;20112;-65
2023/08/02 12:38:53;;;;;;;1.17;0.50;;;32.10;50.90;;;;;;5054196;28;20033;-65
2023/08/02 12:41:18;;;;;;;2.00;0.60;;;32.00;50.60;;;;;;5054533;28;20025;-65
2023/08/02 12:43:44;;;;;;;1.17;0.35;;;32.30;51.00;;;;;;5054404;28;20032;-65
2023/08/02 12:46:09;;;;;;;1.95;0.63;;;32.30;50.20;;;;;;5054492;28;20122;-65
2023/08/02 12:48:35;;;;;;;1.50;0.55;;;32.10;50.70;;;;;;5053988;28;20024;-65